Time;durP1;ratioP1;P1;durP2;ratioP2;P2;SDS_P1;SDS_P2;PMS_P1;PMS_P2;Temp;Humidity;BMP_temperature;BMP_pressure;BME280_temperature;BME280_humidity;BME280_pressure;Samples;Min_cycle;Max_cycle;Signal;HPM_P1;HPM_P2
2024/03/03 00:00:14;;;;;;;15.75;10.05;;;;;;;;;;5013244;28;20026;-80
2024/03/03 00:02:40;;;;;;;16.48;8.82;;;;;;;;;;5028517;28;20049;-79
2024/03/03 00:05:07;;;;;;;13.52;9.00;;;;;;;;;;5017572;28;20025;-78
2024/03/03 00:07:33;;;;;;;16.80;10.18;;;;;;;;;;5016982;28;20310;-78
2024/03/03 00:09:59;;;;;;;21.30;12.18;;;;;;;;;;5016327;28;20014;-80
2024/03/03 00:12:25;;;;;;;21.65;13.25;;;;;;;;;;5016896;28;20026;-78
2024/03/03 00:14:51;;;;;;;19.33;10.95;;;;;;;;;;5024328;28;20365;-78
2024/03/03 00:17:17;;;;;;;21.40;12.23;;;;;;;;;;5016840;28;20025;-80
2024/03/03 00:19:43;;;;;;;19.05;11.80;;;;;;;;;;5032769;28;20026;-78
2024/03/03 00:22:09;;;;;;;19.00;10.68;;;;;;;;;;5018530;28;20022;-80
2024/03/03 00:24:36;;;;;;;20.58;11.40;;;;;;;;;;5019076;28;20037;-80
2024/03/03 00:27:02;;;;;;;20.35;12.10;;;;;;;;;;5017874;28;20163;-79
2024/03/03 00:29:29;;;;;;;19.73;11.70;;;;;;;;;;5017688;28;20026;-78
2024/03/03 00:31:55;;;;;;;17.30;10.27;;;;;;;;;;5017673;28;20045;-77
2024/03/03 00:34:21;;;;;;;18.17;10.57;;;;;;;;;;5016927;28;20088;-79
2024/03/03 00:36:47;;;;;;;17.35;10.98;;;;;;;;;;5032256;28;20088;-79
2024/03/03 00:39:13;;;;;;;16.88;10.07;;;;;;;;;;5015451;28;20121;-79
2024/03/03 00:41:39;;;;;;;19.40;11.00;;;;;;;;;;5018062;28;20113;-78
2024/03/03 00:44:06;;;;;;;20.80;11.82;;;;;;;;;;5023904;28;20010;-79
2024/03/03 00:46:34;;;;;;;16.73;10.52;;;;;;;;;;5025660;28;20028;-81
2024/03/03 00:49:00;;;;;;;22.85;11.50;;;;;;;;;;5022353;28;20025;-78
2024/03/03 00:51:26;;;;;;;20.13;11.13;;;;;;;;;;5017604;28;20038;-77
2024/03/03 00:53:52;;;;;;;20.60;11.90;;;;;;;;;;5016359;28;20109;-77
2024/03/03 00:56:18;;;;;;;26.15;12.48;;;;;;;;;;5020793;28;20022;-79
2024/03/03 00:58:45;;;;;;;22.33;12.32;;;;;;;;;;5022186;28;20021;-77
2024/03/03 01:01:12;;;;;;;24.73;14.77;;;;;;;;;;5029621;28;20038;-78
2024/03/03 01:03:40;;;;;;;25.98;15.18;;;;;;;;;;5038180;28;20022;-79
2024/03/03 01:06:06;;;;;;;24.05;14.60;;;;;;;;;;5039151;28;20033;-79
2024/03/03 01:08:32;;;;;;;24.15;13.07;;;;;;;;;;5040370;28;20044;-80
2024/03/03 01:10:58;;;;;;;25.17;14.50;;;;;;;;;;5037672;28;20012;-79
2024/03/03 01:13:25;;;;;;;22.52;13.10;;;;;;;;;;5024774;28;20469;-79
2024/03/03 01:15:51;;;;;;;20.10;11.95;;;;;;;;;;5026591;28;20034;-78
2024/03/03 01:18:17;;;;;;;18.85;11.63;;;;;;;;;;5019943;28;20377;-78
2024/03/03 01:20:43;;;;;;;17.33;10.50;;;;;;;;;;5033916;28;20084;-77
2024/03/03 01:23:09;;;;;;;17.92;10.30;;;;;;;;;;5034086;28;20022;-79
2024/03/03 01:25:35;;;;;;;16.48;9.40;;;;;;;;;;5015720;28;20453;-79
2024/03/03 01:28:01;;;;;;;16.40;9.15;;;;;;;;;;5018664;28;20026;-79
2024/03/03 01:30:27;;;;;;;15.23;9.38;;;;;;;;;;5023928;28;20435;-79
2024/03/03 01:32:54;;;;;;;12.15;8.00;;;;;;;;;;5034013;28;20038;-77
2024/03/03 01:35:20;;;;;;;13.75;8.82;;;;;;;;;;5029565;28;20030;-78
2024/03/03 01:37:46;;;;;;;16.27;9.38;;;;;;;;;;5024578;28;20025;-79
2024/03/03 01:40:12;;;;;;;12.23;7.63;;;;;;;;;;5023368;28;20029;-77
2024/03/03 01:42:39;;;;;;;12.25;7.90;;;;;;;;;;5025777;28;20376;-78
2024/03/03 01:45:05;;;;;;;13.70;7.68;;;;;;;;;;5025735;28;20021;-77
2024/03/03 01:47:32;;;;;;;13.00;7.40;;;;;;;;;;5027030;28;20025;-79
2024/03/03 01:49:58;;;;;;;12.40;7.65;;;;;;;;;;5023517;28;20036;-79
2024/03/03 01:52:28;;;;;;;9.88;6.93;;;;;;;;;;5027214;28;20491;-78
2024/03/03 01:54:54;;;;;;;12.98;8.02;;;;;;;;;;5024979;28;20021;-78
2024/03/03 01:57:21;;;;;;;12.77;7.35;;;;;;;;;;5025012;28;20112;-78
2024/03/03 01:59:48;;;;;;;11.38;7.60;;;;;;;;;;5023906;28;20044;-79
2024/03/03 02:02:15;;;;;;;11.07;6.85;;;;;;;;;;5025404;28;20037;-77
2024/03/03 02:04:41;;;;;;;11.18;6.80;;;;;;;;;;5022946;28;20394;-77
2024/03/03 02:07:08;;;;;;;8.18;5.97;;;;;;;;;;5026042;28;20350;-77
2024/03/03 02:09:35;;;;;;;10.10;6.32;;;;;;;;;;5020732;28;20025;-79
2024/03/03 02:12:01;;;;;;;11.20;6.55;;;;;;;;;;5027101;28;20021;-79
2024/03/03 02:14:27;;;;;;;10.65;6.88;;;;;;;;;;5023215;28;20172;-79
2024/03/03 02:16:53;;;;;;;10.18;5.70;;;;;;;;;;5026302;28;20541;-77
2024/03/03 02:19:20;;;;;;;10.95;6.35;;;;;;;;;;5023311;28;20095;-79
2024/03/03 02:21:46;;;;;;;8.65;5.50;;;;;;;;;;5022679;28;20017;-78
2024/03/03 02:24:12;;;;;;;9.63;5.20;;;;;;;;;;5024508;28;20147;-79
2024/03/03 02:26:38;;;;;;;8.25;5.72;;;;;;;;;;5027243;28;20040;-78
2024/03/03 02:29:05;;;;;;;9.70;5.82;;;;;;;;;;5024990;28;20049;-77
2024/03/03 02:31:36;;;;;;;7.43;4.72;;;;;;;;;;5027018;28;20022;-79
2024/03/03 02:34:02;;;;;;;8.00;5.20;;;;;;;;;;5022578;28;20030;-79
2024/03/03 02:36:28;;;;;;;7.72;5.03;;;;;;;;;;5024021;28;20020;-79
2024/03/03 02:38:57;;;;;;;8.98;5.55;;;;;;;;;;5027731;28;20030;-80
2024/03/03 02:41:23;;;;;;;10.23;6.10;;;;;;;;;;5020129;28;20559;-77
2024/03/03 02:43:49;;;;;;;9.07;5.60;;;;;;;;;;5014640;28;20018;-79
2024/03/03 02:46:15;;;;;;;8.82;5.50;;;;;;;;;;5014345;28;20021;-78
2024/03/03 02:48:41;;;;;;;9.38;6.13;;;;;;;;;;5013780;28;20424;-77
2024/03/03 02:51:08;;;;;;;11.13;6.25;;;;;;;;;;5013183;28;20021;-78
2024/03/03 02:53:34;;;;;;;8.70;5.65;;;;;;;;;;5013858;28;20389;-78
2024/03/03 02:56:00;;;;;;;10.07;6.32;;;;;;;;;;5015965;28;20041;-79
2024/03/03 02:58:28;;;;;;;10.35;5.65;;;;;;;;;;5012989;28;20060;-80
2024/03/03 03:00:54;;;;;;;8.02;5.28;;;;;;;;;;5029102;28;20037;-77
2024/03/03 03:03:20;;;;;;;8.15;5.28;;;;;;;;;;5012924;28;20090;-79
2024/03/03 03:05:46;;;;;;;8.68;5.60;;;;;;;;;;5012635;28;20366;-78
2024/03/03 03:08:12;;;;;;;6.80;4.72;;;;;;;;;;5013304;28;20018;-77
2024/03/03 03:10:39;;;;;;;6.53;4.55;;;;;;;;;;5013852;28;20025;-79
2024/03/03 03:13:05;;;;;;;6.85;4.50;;;;;;;;;;5013946;28;20033;-78
2024/03/03 03:15:35;;;;;;;6.82;4.43;;;;;;;;;;5014317;28;20029;-78
2024/03/03 03:18:02;;;;;;;6.82;3.88;;;;;;;;;;5016339;28;20453;-78
2024/03/03 03:20:28;;;;;;;6.05;3.58;;;;;;;;;;5009092;28;20030;-79
2024/03/03 03:22:54;;;;;;;6.00;3.47;;;;;;;;;;5013616;28;20366;-79
2024/03/03 03:25:20;;;;;;;5.13;3.85;;;;;;;;;;5013760;28;20091;-77
2024/03/03 03:27:46;;;;;;;7.25;4.28;;;;;;;;;;5014725;28;20029;-77
2024/03/03 03:30:12;;;;;;;6.72;4.22;;;;;;;;;;5013315;28;20389;-78
2024/03/03 03:32:39;;;;;;;6.78;4.13;;;;;;;;;;5012869;28;20034;-79
2024/03/03 03:35:06;;;;;;;5.55;3.90;;;;;;;;;;5021785;28;20033;-79
2024/03/03 03:37:32;;;;;;;5.72;3.70;;;;;;;;;;5032337;28;20172;-78
2024/03/03 03:39:58;;;;;;;4.75;3.42;;;;;;;;;;5015335;28;20014;-79
2024/03/03 03:42:24;;;;;;;5.93;3.78;;;;;;;;;;5014228;28;20037;-78
2024/03/03 03:44:50;;;;;;;9.07;5.07;;;;;;;;;;5016044;28;20030;-78
2024/03/03 03:47:16;;;;;;;6.88;4.35;;;;;;;;;;5017606;28;20076;-78
2024/03/03 03:49:42;;;;;;;7.25;4.45;;;;;;;;;;5016758;28;20464;-77
2024/03/03 03:52:08;;;;;;;8.00;5.10;;;;;;;;;;5017751;28;20026;-79
2024/03/03 03:54:34;;;;;;;8.05;4.47;;;;;;;;;;5024277;28;20034;-78
2024/03/03 03:57:01;;;;;;;7.43;4.70;;;;;;;;;;5019379;28;20519;-78
2024/03/03 03:59:27;;;;;;;6.15;4.00;;;;;;;;;;5018890;28;20026;-77
2024/03/03 04:01:54;;;;;;;5.85;3.72;;;;;;;;;;5017171;28;20026;-77
2024/03/03 04:04:21;;;;;;;5.18;3.60;;;;;;;;;;5017291;28;20109;-78
2024/03/03 04:06:48;;;;;;;6.35;3.88;;;;;;;;;;5020479;28;20018;-83
2024/03/03 04:09:14;;;;;;;5.50;3.92;;;;;;;;;;5019832;28;20065;-80
2024/03/03 04:11:40;;;;;;;5.65;4.05;;;;;;;;;;5022526;28;20052;-80
2024/03/03 04:14:07;;;;;;;6.15;4.15;;;;;;;;;;5025883;28;20393;-78
2024/03/03 04:16:33;;;;;;;5.60;3.60;;;;;;;;;;5020508;28;20025;-80
2024/03/03 04:19:00;;;;;;;4.15;3.13;;;;;;;;;;5019413;28;20037;-80
2024/03/03 04:21:26;;;;;;;5.22;3.75;;;;;;;;;;5019644;28;20368;-81
2024/03/03 04:23:52;;;;;;;5.63;3.58;;;;;;;;;;5018101;28;20029;-81
2024/03/03 04:26:19;;;;;;;4.13;3.20;;;;;;;;;;5020321;28;20021;-81
2024/03/03 04:28:45;;;;;;;4.78;3.05;;;;;;;;;;5020784;28;20022;-81
2024/03/03 04:31:11;;;;;;;4.60;3.00;;;;;;;;;;5020630;28;20493;-82
2024/03/03 04:33:38;;;;;;;4.70;3.10;;;;;;;;;;5018685;28;20037;-79
2024/03/03 04:36:10;;;;;;;4.93;3.22;;;;;;;;;;5018256;28;20038;-79
2024/03/03 04:38:39;;;;;;;3.28;2.53;;;;;;;;;;5017905;28;20105;-78
2024/03/03 04:41:12;;;;;;;3.35;2.35;;;;;;;;;;5018180;28;20022;-78
2024/03/03 04:43:38;;;;;;;;;;;;;;;;;;5024496;28;20053;-79
2024/03/03 04:46:04;;;;;;;5.22;3.10;;;;;;;;;;5023295;28;19909;-78
2024/03/03 04:48:30;;;;;;;6.20;3.17;;;;;;;;;;5017264;28;20458;-78
2024/03/03 04:50:57;;;;;;;4.07;2.67;;;;;;;;;;5016172;28;20026;-79
2024/03/03 04:53:23;;;;;;;3.88;2.97;;;;;;;;;;5016469;28;20022;-79
2024/03/03 04:55:49;;;;;;;3.88;2.72;;;;;;;;;;5016743;28;20102;-78
2024/03/03 04:58:15;;;;;;;3.60;2.83;;;;;;;;;;5015674;28;20030;-80
2024/03/03 05:00:41;;;;;;;4.72;2.78;;;;;;;;;;5016275;28;20032;-79
2024/03/03 05:03:09;;;;;;;4.00;2.95;;;;;;;;;;5017149;28;20041;-79
2024/03/03 05:05:35;;;;;;;4.65;2.88;;;;;;;;;;5015939;28;20087;-79
2024/03/03 05:08:01;;;;;;;4.57;3.10;;;;;;;;;;5018317;28;20110;-78
2024/03/03 05:10:27;;;;;;;5.65;3.47;;;;;;;;;;5018857;28;20026;-79
2024/03/03 05:12:53;;;;;;;5.32;3.47;;;;;;;;;;5018905;28;20036;-79
2024/03/03 05:15:20;;;;;;;4.53;2.42;;;;;;;;;;5019885;28;20033;-79
2024/03/03 05:17:46;;;;;;;4.63;3.30;;;;;;;;;;5019323;28;20026;-78
2024/03/03 05:20:12;;;;;;;3.45;2.53;;;;;;;;;;5017708;28;20076;-79
2024/03/03 05:22:38;;;;;;;3.97;2.65;;;;;;;;;;5016951;28;20072;-78
2024/03/03 05:25:05;;;;;;;3.75;2.53;;;;;;;;;;5016047;28;20022;-79
2024/03/03 05:27:31;;;;;;;5.57;3.53;;;;;;;;;;5018440;28;20508;-79
2024/03/03 05:29:57;;;;;;;5.38;3.40;;;;;;;;;;5020688;28;20503;-81
2024/03/03 05:32:23;;;;;;;4.93;3.15;;;;;;;;;;5018898;28;20492;-80
2024/03/03 05:34:49;;;;;;;4.20;2.88;;;;;;;;;;5018627;28;20030;-80
2024/03/03 05:37:16;;;;;;;5.82;3.00;;;;;;;;;;5017062;28;20026;-82
2024/03/03 05:39:42;;;;;;;5.22;3.20;;;;;;;;;;5027099;28;20022;-82
2024/03/03 05:42:12;;;;;;;6.03;3.55;;;;;;;;;;5035697;28;20037;-81
2024/03/03 05:44:38;;;;;;;5.25;3.15;;;;;;;;;;5017114;28;20033;-80
2024/03/03 05:47:05;;;;;;;5.63;2.97;;;;;;;;;;5013797;28;20030;-80
2024/03/03 05:49:33;;;;;;;5.45;3.22;;;;;;;;;;5015819;28;20677;-79
2024/03/03 05:52:00;;;;;;;5.35;3.58;;;;;;;;;;5020066;28;20021;-79
2024/03/03 05:54:26;;;;;;;5.13;3.00;;;;;;;;;;5027062;28;20028;-78
2024/03/03 05:56:52;;;;;;;3.70;2.60;;;;;;;;;;5017566;28;20037;-78
2024/03/03 05:59:19;;;;;;;3.38;2.28;;;;;;;;;;5014065;28;20018;-78
2024/03/03 06:01:48;;;;;;;3.40;2.55;;;;;;;;;;5013364;28;20397;-78
2024/03/03 06:04:15;;;;;;;3.80;2.33;;;;;;;;;;5014022;28;20080;-78
2024/03/03 06:06:41;;;;;;;3.90;2.38;;;;;;;;;;5013558;28;20018;-77
2024/03/03 06:09:10;;;;;;;3.67;2.60;;;;;;;;;;5001968;28;20022;-78
2024/03/03 06:11:37;;;;;;;2.55;2.25;;;;;;;;;;5012137;28;20061;-78
2024/03/03 06:14:03;;;;;;;3.80;2.30;;;;;;;;;;5013664;28;20018;-78
2024/03/03 06:16:29;;;;;;;2.83;2.20;;;;;;;;;;5013953;28;20022;-78
2024/03/03 06:18:56;;;;;;;3.03;2.00;;;;;;;;;;5011691;28;20112;-76
2024/03/03 06:21:22;;;;;;;2.78;1.90;;;;;;;;;;5013402;28;20088;-77
2024/03/03 06:23:48;;;;;;;2.88;2.20;;;;;;;;;;5013978;28;20396;-78
2024/03/03 06:26:17;;;;;;;2.08;1.85;;;;;;;;;;5013420;28;20519;-77
2024/03/03 06:28:44;;;;;;;2.85;2.05;;;;;;;;;;5013021;28;20030;-76
2024/03/03 06:31:11;;;;;;;1.40;1.30;;;;;;;;;;5014990;28;20523;-77
2024/03/03 06:33:37;;;;;;;1.80;1.50;;;;;;;;;;5013920;28;20026;-78
2024/03/03 06:36:03;;;;;;;2.38;1.58;;;;;;;;;;5013306;28;20030;-76
2024/03/03 06:38:30;;;;;;;1.50;1.40;;;;;;;;;;5012456;28;20115;-76
2024/03/03 06:40:56;;;;;;;1.67;1.27;;;;;;;;;;5012592;28;20120;-77
2024/03/03 06:43:22;;;;;;;1.40;1.10;;;;;;;;;;5013400;28;20025;-76
2024/03/03 06:45:48;;;;;;;1.70;1.40;;;;;;;;;;5012987;28;20072;-77
2024/03/03 06:48:14;;;;;;;1.05;0.90;;;;;;;;;;5012739;28;20380;-78
2024/03/03 06:50:40;;;;;;;1.30;1.20;;;;;;;;;;5012714;28;20438;-76
2024/03/03 06:53:07;;;;;;;0.80;0.80;;;;;;;;;;5013439;28;20041;-77
2024/03/03 06:55:33;;;;;;;1.40;1.00;;;;;;;;;;5013292;28;20037;-77
2024/03/03 06:57:59;;;;;;;1.27;1.15;;;;;;;;;;5012968;28;20345;-78
2024/03/03 07:00:25;;;;;;;1.10;0.95;;;;;;;;;;5012115;28;20032;-77
2024/03/03 07:05:36;;;;;;;0.98;0.90;;;;;;;;;;5012437;28;20069;-77
2024/03/03 07:08:02;;;;;;;0.70;0.70;;;;;;;;;;5004961;28;20026;-77
2024/03/03 07:10:30;;;;;;;0.47;0.47;;;;;;;;;;5012527;28;20028;-77
2024/03/03 07:12:56;;;;;;;0.73;0.70;;;;;;;;;;5013102;28;20380;-76
2024/03/03 07:15:22;;;;;;;0.60;0.60;;;;;;;;;;5013081;28;20037;-77
2024/03/03 07:17:48;;;;;;;1.08;0.70;;;;;;;;;;5013166;28;20026;-78
2024/03/03 07:20:15;;;;;;;0.50;0.50;;;;;;;;;;5013243;28;20428;-77
2024/03/03 07:22:41;;;;;;;0.70;0.52;;;;;;;;;;5013213;28;20395;-78
2024/03/03 07:25:08;;;;;;;0.32;0.32;;;;;;;;;;5008510;28;20041;-78
2024/03/03 07:27:34;;;;;;;0.40;0.40;;;;;;;;;;5009530;28;20025;-76
2024/03/03 07:30:00;;;;;;;0.40;0.40;;;;;;;;;;5011907;28;20052;-76
2024/03/03 07:32:28;;;;;;;0.30;0.30;;;;;;;;;;5012603;28;20025;-76
2024/03/03 07:34:55;;;;;;;0.35;0.35;;;;;;;;;;5012364;28;20041;-77
2024/03/03 07:37:21;;;;;;;0.47;0.30;;;;;;;;;;5012897;28;20025;-77
2024/03/03 07:39:47;;;;;;;0.20;0.20;;;;;;;;;;5012041;28;20018;-77
2024/03/03 07:42:14;;;;;;;0.30;0.30;;;;;;;;;;5012138;28;20400;-77
2024/03/03 07:44:40;;;;;;;0.10;0.10;;;;;;;;;;5021823;28;20022;-78
2024/03/03 07:47:06;;;;;;;0.20;0.20;;;;;;;;;;5034554;28;20048;-77
2024/03/03 07:49:32;;;;;;;0.10;0.10;;;;;;;;;;5025381;28;20033;-77
2024/03/03 07:51:59;;;;;;;0.10;0.10;;;;;;;;;;5011656;28;20040;-78
2024/03/03 07:54:25;;;;;;;0.20;0.20;;;;;;;;;;5012461;28;20033;-78
2024/03/03 07:56:51;;;;;;;0.43;0.20;;;;;;;;;;5012476;28;20044;-77
2024/03/03 07:59:17;;;;;;;0.10;0.10;;;;;;;;;;5011759;28;20080;-77
2024/03/03 08:01:43;;;;;;;1.65;0.28;;;;;;;;;;5011166;28;20034;-76
2024/03/03 08:04:12;;;;;;;0.20;0.20;;;;;;;;;;5012980;28;20041;-77
2024/03/03 08:06:39;;;;;;;0.20;0.20;;;;;;;;;;5010316;28;20030;-77
2024/03/03 08:09:06;;;;;;;0.10;0.10;;;;;;;;;;5011416;28;20018;-77
2024/03/03 08:11:35;;;;;;;0.05;0.05;;;;;;;;;;5011443;28;20026;-78
2024/03/03 08:14:04;;;;;;;0.25;0.10;;;;;;;;;;5011707;28;20096;-78
2024/03/03 08:16:33;;;;;;;0.10;0.10;;;;;;;;;;5011580;28;20073;-77
2024/03/03 08:18:59;;;;;;;0.17;0.10;;;;;;;;;;5009818;28;20124;-78
2024/03/03 08:21:25;;;;;;;0.10;0.10;;;;;;;;;;5011668;28;20105;-77
2024/03/03 08:23:51;;;;;;;0.20;0.20;;;;;;;;;;5014139;28;20026;-76
2024/03/03 08:26:18;;;;;;;0.32;0.15;;;;;;;;;;5015465;28;20098;-77
2024/03/03 08:28:44;;;;;;;0.20;0.20;;;;;;;;;;5014972;28;20037;-77
2024/03/03 08:31:10;;;;;;;0.10;0.10;;;;;;;;;;5014862;28;20249;-78
2024/03/03 08:33:37;;;;;;;0.25;0.10;;;;;;;;;;5014876;28;20408;-76
2024/03/03 08:36:03;;;;;;;0.10;0.10;;;;;;;;;;5014761;28;20014;-78
2024/03/03 08:38:30;;;;;;;0.20;0.20;;;;;;;;;;5014817;28;20420;-77
2024/03/03 08:40:56;;;;;;;0.20;0.20;;;;;;;;;;5014691;28;20025;-77
2024/03/03 08:43:22;;;;;;;0.28;0.28;;;;;;;;;;5013627;28;20557;-77
2024/03/03 08:45:48;;;;;;;0.25;0.22;;;;;;;;;;5014914;28;20485;-78
2024/03/03 08:48:14;;;;;;;0.13;0.13;;;;;;;;;;5014421;28;20068;-77
2024/03/03 08:50:40;;;;;;;1.10;0.22;;;;;;;;;;5014832;28;20022;-77
2024/03/03 08:53:07;;;;;;;0.25;0.25;;;;;;;;;;5014605;28;20628;-77
2024/03/03 08:55:33;;;;;;;0.10;0.10;;;;;;;;;;5015183;28;20423;-77
2024/03/03 08:57:59;;;;;;;0.20;0.20;;;;;;;;;;5014995;28;20485;-77
2024/03/03 09:00:25;;;;;;;0.20;0.10;;;;;;;;;;5013937;28;20033;-77
2024/03/03 09:02:51;;;;;;;0.47;0.30;;;;;;;;;;5015898;28;20032;-78
2024/03/03 09:05:17;;;;;;;0.20;0.15;;;;;;;;;;5014511;28;20026;-76
2024/03/03 09:07:43;;;;;;;0.13;0.13;;;;;;;;;;5014247;28;20164;-76
2024/03/03 09:10:10;;;;;;;0.20;0.20;;;;;;;;;;5012991;28;20033;-76
2024/03/03 09:12:36;;;;;;;0.30;0.30;;;;;;;;;;5014357;28;20030;-77
2024/03/03 09:15:02;;;;;;;0.20;0.20;;;;;;;;;;5029673;28;20026;-77
2024/03/03 09:17:28;;;;;;;0.47;0.35;;;;;;;;;;5015049;28;20033;-78
2024/03/03 09:19:54;;;;;;;0.35;0.20;;;;;;;;;;5013703;28;20029;-77
2024/03/03 09:22:21;;;;;;;0.30;0.30;;;;;;;;;;5014341;28;20030;-77
2024/03/03 09:24:47;;;;;;;0.30;0.20;;;;;;;;;;5014232;28;20061;-76
2024/03/03 09:27:13;;;;;;;0.20;0.20;;;;;;;;;;5013613;28;20396;-77
2024/03/03 09:29:39;;;;;;;0.20;0.20;;;;;;;;;;5014790;28;20072;-77
2024/03/03 09:32:06;;;;;;;0.20;0.20;;;;;;;;;;5005216;28;20048;-77
2024/03/03 09:34:32;;;;;;;0.17;0.17;;;;;;;;;;5014225;28;20032;-77
2024/03/03 09:36:58;;;;;;;0.30;0.30;;;;;;;;;;5014695;28;20056;-77
2024/03/03 09:39:25;;;;;;;0.10;0.10;;;;;;;;;;5012465;28;20029;-75
2024/03/03 09:41:58;;;;;;;0.20;0.20;;;;;;;;;;5013819;28;20484;-77
2024/03/03 09:44:27;;;;;;;0.20;0.20;;;;;;;;;;5013973;28;20485;-79
2024/03/03 09:46:53;;;;;;;0.32;0.22;;;;;;;;;;5014501;28;20026;-78
2024/03/03 09:49:23;;;;;;;0.30;0.22;;;;;;;;;;5013975;28;20029;-76
2024/03/03 09:51:49;;;;;;;0.15;0.15;;;;;;;;;;5014340;28;20572;-78
2024/03/03 09:54:16;;;;;;;0.50;0.30;;;;;;;;;;5022907;28;20038;-78
2024/03/03 09:56:51;;;;;;;0.20;0.20;;;;;;;;;;5028847;28;20030;-78
2024/03/03 09:59:17;;;;;;;0.25;0.25;;;;;;;;;;5013278;28;20021;-77
2024/03/03 10:01:56;;;;;;;0.20;0.20;;;;;;;;;;5014132;28;20038;-77
2024/03/03 10:04:22;;;;;;;0.20;0.20;;;;;;;;;;5014077;28;20507;-76
2024/03/03 10:06:53;;;;;;;0.30;0.30;;;;;;;;;;5013623;28;20105;-77
2024/03/03 10:09:20;;;;;;;0.28;0.20;;;;;;;;;;5014639;28;20018;-78
2024/03/03 10:11:47;;;;;;;0.30;0.30;;;;;;;;;;5013607;28;20484;-76
2024/03/03 10:14:13;;;;;;;0.30;0.30;;;;;;;;;;4962542;28;20393;-78
2024/03/03 10:16:39;;;;;;;0.30;0.30;;;;;;;;;;5004812;28;20041;-77
2024/03/03 10:19:06;;;;;;;0.30;0.30;;;;;;;;;;5013474;28;20040;-78
2024/03/03 10:21:35;;;;;;;0.30;0.30;;;;;;;;;;5013215;28;20033;-76
2024/03/03 10:24:22;;;;;;;0.30;0.30;;;;;;;;;;5012437;28;20030;-77
2024/03/03 10:26:49;;;;;;;0.47;0.30;;;;;;;;;;5012660;28;20028;-77
2024/03/03 10:29:18;;;;;;;0.20;0.20;;;;;;;;;;5013243;28;20480;-77
2024/03/03 10:31:45;;;;;;;0.25;0.25;;;;;;;;;;5013160;28;20033;-77
2024/03/03 10:34:12;;;;;;;0.40;0.40;;;;;;;;;;5013240;28;20307;-76
2024/03/03 10:36:38;;;;;;;0.20;0.20;;;;;;;;;;5007767;28;20034;-77
2024/03/03 10:39:05;;;;;;;0.73;0.35;;;;;;;;;;5012341;28;20504;-77
2024/03/03 10:41:32;;;;;;;0.20;0.20;;;;;;;;;;5013217;28;20093;-76
2024/03/03 10:43:59;;;;;;;0.30;0.30;;;;;;;;;;5012880;28;20028;-77
2024/03/03 10:46:25;;;;;;;1.80;0.55;;;;;;;;;;5012204;28;20050;-77
2024/03/03 10:48:54;;;;;;;0.52;0.43;;;;;;;;;;5012171;28;20021;-77
2024/03/03 10:51:21;;;;;;;0.28;0.28;;;;;;;;;;5012511;28;20030;-76
2024/03/03 10:53:51;;;;;;;0.30;0.20;;;;;;;;;;5012659;28;20118;-77
2024/03/03 10:56:18;;;;;;;0.40;0.40;;;;;;;;;;5012504;28;20050;-78
2024/03/03 10:58:45;;;;;;;0.30;0.30;;;;;;;;;;5011413;28;20022;-77
2024/03/03 11:01:12;;;;;;;0.32;0.32;;;;;;;;;;5012100;28;20505;-76
2024/03/03 11:03:39;;;;;;;0.30;0.30;;;;;;;;;;5012611;28;20061;-78
2024/03/03 11:06:06;;;;;;;0.38;0.38;;;;;;;;;;5014545;28;20042;-76
2024/03/03 11:08:32;;;;;;;0.20;0.20;;;;;;;;;;5011020;28;20116;-78
2024/03/03 11:11:03;;;;;;;0.20;0.20;;;;;;;;;;5012546;28;20056;-77
2024/03/03 11:13:31;;;;;;;0.30;0.30;;;;;;;;;;5013358;28;20029;-77
2024/03/03 11:15:59;;;;;;;0.38;0.30;;;;;;;;;;5012904;28;20033;-78
2024/03/03 11:18:26;;;;;;;0.35;0.32;;;;;;;;;;5012239;28;20087;-76
2024/03/03 11:20:56;;;;;;;0.60;0.40;;;;;;;;;;5011609;28;20030;-77
2024/03/03 11:23:36;;;;;;;0.57;0.57;;;;;;;;;;5013605;28;20033;-77
2024/03/03 11:26:21;;;;;;;0.55;0.40;;;;;;;;;;5014404;28;20021;-77
2024/03/03 11:28:49;;;;;;;0.75;0.63;;;;;;;;;;5013303;28;20041;-77
2024/03/03 11:31:15;;;;;;;1.30;0.75;;;;;;;;;;5012868;28;20034;-78
2024/03/03 11:33:42;;;;;;;3.03;0.68;;;;;;;;;;5012952;28;20026;-78
2024/03/03 11:36:08;;;;;;;1.58;0.60;;;;;;;;;;5013207;28;20114;-77
2024/03/03 11:38:42;;;;;;;2.30;1.45;;;;;;;;;;5013108;28;20037;-78
2024/03/03 11:41:11;;;;;;;0.82;0.70;;;;;;;;;;5004785;28;20096;-77
2024/03/03 11:43:40;;;;;;;1.95;0.70;;;;;;;;;;5013329;28;20378;-77
2024/03/03 11:46:07;;;;;;;1.65;1.15;;;;;;;;;;5013919;28;20025;-77
2024/03/03 11:48:34;;;;;;;1.52;0.70;;;;;;;;;;5012821;28;20032;-77
2024/03/03 11:51:19;;;;;;;0.63;0.45;;;;;;;;;;5013217;28;20590;-77
2024/03/03 11:53:57;;;;;;;0.98;0.40;;;;;;;;;;5009225;28;20033;-77
2024/03/03 11:56:23;;;;;;;0.40;0.40;;;;;;;;;;5006747;28;20097;-77
2024/03/03 11:58:50;;;;;;;0.60;0.60;;;;;;;;;;5012580;28;20030;-78
2024/03/03 12:01:23;;;;;;;0.95;0.75;;;;;;;;;;5023720;28;20551;-76
2024/03/03 12:03:49;;;;;;;0.30;0.30;;;;;;;;;;5024128;28;20021;-77
2024/03/03 12:06:20;;;;;;;0.60;0.60;;;;;;;;;;5017809;28;20491;-76
2024/03/03 12:08:50;;;;;;;0.90;0.40;;;;;;;;;;5015278;28;20543;-77
2024/03/03 12:11:17;;;;;;;2.38;0.63;;;;;;;;;;5016056;28;20099;-77
2024/03/03 12:13:43;;;;;;;2.67;0.50;;;;;;;;;;5016484;28;20026;-77
2024/03/03 12:16:09;;;;;;;0.77;0.52;;;;;;;;;;5009022;28;20128;-77
2024/03/03 12:18:35;;;;;;;1.45;0.75;;;;;;;;;;5015336;28;20041;-77
2024/03/03 12:21:02;;;;;;;0.52;0.40;;;;;;;;;;5015924;28;20041;-77
2024/03/03 12:23:31;;;;;;;0.20;0.20;;;;;;;;;;5016421;28;20445;-77
2024/03/03 12:25:57;;;;;;;0.50;0.50;;;;;;;;;;5016345;28;20029;-77
2024/03/03 12:28:26;;;;;;;0.68;0.50;;;;;;;;;;5015594;28;20037;-78
2024/03/03 12:30:52;;;;;;;0.50;0.50;;;;;;;;;;5014793;28;20040;-76
2024/03/03 12:33:18;;;;;;;0.43;0.43;;;;;;;;;;5016627;28;20105;-75
2024/03/03 12:35:45;;;;;;;1.80;0.77;;;;;;;;;;5015010;28;20029;-77
2024/03/03 12:38:12;;;;;;;1.00;0.85;;;;;;;;;;5016207;28;20508;-77
2024/03/03 12:40:39;;;;;;;0.77;0.60;;;;;;;;;;5015518;28;20029;-77
2024/03/03 12:43:05;;;;;;;0.50;0.50;;;;;;;;;;5016219;28;20110;-77
2024/03/03 12:45:32;;;;;;;0.65;0.50;;;;;;;;;;5016373;28;20428;-77
2024/03/03 12:47:58;;;;;;;0.50;0.50;;;;;;;;;;5013168;28;20113;-76
2024/03/03 12:50:24;;;;;;;0.70;0.70;;;;;;;;;;5015684;28;20037;-77
2024/03/03 12:52:58;;;;;;;0.63;0.50;;;;;;;;;;5009107;28;20032;-77
2024/03/03 12:55:27;;;;;;;0.75;0.60;;;;;;;;;;5015353;28;20037;-79
2024/03/03 12:57:53;;;;;;;0.68;0.60;;;;;;;;;;5020475;28;20022;-78
2024/03/03 13:00:19;;;;;;;0.68;0.40;;;;;;;;;;5025864;28;20091;-79
2024/03/03 13:02:46;;;;;;;1.65;0.65;;;;;;;;;;5035303;28;20112;-79
2024/03/03 13:05:16;;;;;;;0.93;0.40;;;;;;;;;;5026594;28;20025;-81
2024/03/03 13:07:52;;;;;;;0.40;0.40;;;;;;;;;;5025513;28;20028;-80
2024/03/03 13:10:19;;;;;;;0.70;0.52;;;;;;;;;;5015396;28;20025;-81
2024/03/03 13:12:45;;;;;;;1.13;0.40;;;;;;;;;;5026169;28;20088;-81
2024/03/03 13:15:12;;;;;;;2.33;0.50;;;;;;;;;;5016921;28;20129;-81
2024/03/03 13:17:38;;;;;;;1.45;0.40;;;;;;;;;;5043320;28;20030;-81
2024/03/03 13:20:04;;;;;;;0.80;0.80;;;;;;;;;;5024761;28;20022;-79
2024/03/03 13:22:30;;;;;;;0.70;0.43;;;;;;;;;;5018540;28;20113;-81
2024/03/03 13:25:04;;;;;;;1.60;0.50;;;;;;;;;;5024551;28;20054;-79
2024/03/03 13:27:30;;;;;;;0.80;0.50;;;;;;;;;;5025733;28;20018;-80
2024/03/03 13:30:16;;;;;;;0.50;0.50;;;;;;;;;;5024522;28;20021;-79
2024/03/03 13:32:42;;;;;;;0.50;0.50;;;;;;;;;;5025098;28;20117;-80
2024/03/03 13:35:08;;;;;;;0.50;0.40;;;;;;;;;;5024171;28;20032;-80
2024/03/03 13:37:35;;;;;;;0.30;0.30;;;;;;;;;;5022858;28;20033;-79
2024/03/03 13:40:01;;;;;;;0.80;0.30;;;;;;;;;;5024358;28;20037;-79
2024/03/03 13:42:27;;;;;;;0.32;0.32;;;;;;;;;;5024901;28;20029;-81
2024/03/03 13:44:53;;;;;;;0.47;0.40;;;;;;;;;;5024273;28;20030;-82
2024/03/03 13:47:19;;;;;;;2.08;0.52;;;;;;;;;;5021063;28;20027;-80
2024/03/03 13:49:45;;;;;;;0.57;0.55;;;;;;;;;;5023189;28;20021;-81
2024/03/03 13:52:11;;;;;;;0.30;0.30;;;;;;;;;;5032744;28;20034;-78
2024/03/03 13:54:38;;;;;;;0.50;0.50;;;;;;;;;;5026801;28;20068;-80
2024/03/03 13:57:04;;;;;;;0.40;0.40;;;;;;;;;;5023969;28;20064;-80
2024/03/03 13:59:31;;;;;;;1.58;0.40;;;;;;;;;;5022163;28;20026;-80
2024/03/03 14:01:57;;;;;;;0.50;0.50;;;;;;;;;;5022209;28;20094;-80
2024/03/03 14:04:24;;;;;;;0.40;0.40;;;;;;;;;;5027331;28;20078;-81
2024/03/03 14:06:50;;;;;;;0.40;0.40;;;;;;;;;;5025898;28;20041;-77
2024/03/03 14:09:16;;;;;;;0.93;0.50;;;;;;;;;;5025823;28;20008;-80
2024/03/03 14:11:42;;;;;;;0.40;0.40;;;;;;;;;;5033562;28;20058;-80
2024/03/03 14:14:08;;;;;;;0.40;0.40;;;;;;;;;;5022174;28;20022;-80
2024/03/03 14:16:34;;;;;;;0.38;0.38;;;;;;;;;;5023634;28;20108;-80
2024/03/03 14:19:01;;;;;;;0.40;0.40;;;;;;;;;;5020330;28;20113;-78
2024/03/03 14:21:27;;;;;;;1.00;0.55;;;;;;;;;;5018768;28;20332;-80
2024/03/03 14:23:54;;;;;;;0.43;0.43;;;;;;;;;;5020013;28;20091;-78
2024/03/03 14:26:21;;;;;;;0.32;0.32;;;;;;;;;;5023814;28;20026;-79
2024/03/03 14:28:54;;;;;;;2.20;0.60;;;;;;;;;;5019951;28;20028;-77
2024/03/03 14:31:20;;;;;;;1.48;0.55;;;;;;;;;;5020543;28;20097;-80
2024/03/03 14:33:47;;;;;;;0.52;0.30;;;;;;;;;;5019467;28;20475;-79
2024/03/03 14:36:14;;;;;;;0.90;0.40;;;;;;;;;;5011649;28;20030;-79
2024/03/03 14:38:40;;;;;;;0.30;0.30;;;;;;;;;;5019783;28;20056;-78
2024/03/03 14:41:06;;;;;;;0.40;0.40;;;;;;;;;;5020362;28;20070;-78